Time;durP1;ratioP1;P1;durP2;ratioP2;P2;SDS_P1;SDS_P2;PMS_P1;PMS_P2;Temp;Humidity;BMP_temperature;BMP_pressure;BME280_temperature;BME280_humidity;BME280_pressure;Samples;Min_cycle;Max_cycle;Signal;HPM_P1;HPM_P2
2023/06/27 00:00:13;;;;;;;8.87;4.47;;;;;;;19.11;51.90;100007.45;123720;1099;104339;-77
2023/06/27 00:03:05;;;;;;;12.53;4.80;;;;;;;19.06;52.59;100005.70;123879;1098;104332;-77
2023/06/27 00:05:37;;;;;;;8.93;4.67;;;;;;;19.01;52.60;100001.32;123763;1099;104271;-75
2023/06/27 00:08:08;;;;;;;9.37;4.63;;;;;;;18.98;52.20;100001.34;123847;1099;110679;-77
2023/06/27 00:10:39;;;;;;;10.30;4.93;;;;;;;18.98;52.28;100000.44;123691;1099;104233;-76
2023/06/27 00:13:15;;;;;;;12.17;4.77;;;;;;;18.94;53.09;100007.56;123694;1099;104352;-76
2023/06/27 00:15:48;;;;;;;8.70;4.27;;;;;;;18.93;52.99;99996.94;123750;1099;104491;-77
2023/06/27 00:18:21;;;;;;;8.33;4.10;;;;;;;18.95;52.66;100003.15;123803;1099;104242;-78
2023/06/27 00:20:52;;;;;;;11.13;4.53;;;;;;;18.91;53.19;100004.92;123712;1099;104357;-76
2023/06/27 00:23:27;;;;;;;7.53;4.00;;;;;;;18.90;52.72;100010.25;123796;1099;104373;-76
2023/06/27 00:25:58;;;;;;;11.53;4.83;;;;;;;18.90;52.96;99996.95;123879;1099;104300;-77
2023/06/27 00:28:30;;;;;;;9.60;4.40;;;;;;;18.88;52.96;100001.41;123626;1099;104280;-78
2023/06/27 00:31:01;;;;;;;7.43;4.00;;;;;;;18.85;53.00;100002.30;124014;1099;104383;-78
2023/06/27 00:33:32;;;;;;;8.73;4.13;;;;;;;18.83;53.68;100010.25;123547;1099;104268;-79
2023/06/27 00:36:05;;;;;;;11.20;4.27;;;;;;;18.80;53.12;100007.61;123916;1099;104239;-77
2023/06/27 00:38:38;;;;;;;8.73;4.93;;;;;;;18.77;53.31;99990.81;123979;1098;104341;-76
2023/06/27 00:41:10;;;;;;;9.10;4.10;;;;;;;18.77;52.93;99985.49;123309;1099;104705;-76
2023/06/27 00:43:42;;;;;;;10.67;4.50;;;;;;;18.81;53.35;99980.15;123573;1099;104217;-76
2023/06/27 00:46:16;;;;;;;10.17;4.90;;;;;;;18.84;52.89;99993.45;123620;1099;104236;-77
2023/06/27 00:48:49;;;;;;;8.93;4.43;;;;;;;18.84;53.39;99992.55;123801;1099;104360;-76
2023/06/27 00:51:21;;;;;;;10.53;4.67;;;;;;;18.84;53.53;99981.92;123591;1098;104354;-76
2023/06/27 00:53:52;;;;;;;11.20;4.40;;;;;;;18.86;52.94;99988.13;123660;1099;104293;-76
2023/06/27 00:56:23;;;;;;;9.17;4.10;;;;;;;18.86;53.02;99981.03;123692;1099;104265;-75
2023/06/27 00:58:58;;;;;;;9.40;4.37;;;;;;;18.88;53.21;99978.36;123886;1099;104278;-75
2023/06/27 01:01:30;;;;;;;13.57;4.60;;;;;;;18.89;53.59;99982.80;123824;1099;104181;-76
2023/06/27 01:04:01;;;;;;;10.53;4.27;;;;;;;18.90;53.13;99983.66;123432;1099;104319;-76
2023/06/27 01:06:40;;;;;;;9.97;4.63;;;;;;;18.91;53.50;99982.78;123388;1099;104384;-76
2023/06/27 01:09:18;;;;;;;15.10;4.97;;;;;;;18.90;53.13;99987.23;123854;1099;104188;-76
2023/06/27 01:11:54;;;;;;;8.07;4.30;;;;;;;18.90;53.68;99988.98;123691;1099;104303;-76
2023/06/27 01:14:29;;;;;;;7.70;4.40;;;;;;;18.85;53.55;99991.67;123786;1099;104307;-75
2023/06/27 01:17:03;;;;;;;10.67;4.37;;;;;;;18.80;53.34;99988.13;123585;1098;104238;-77
2023/06/27 01:19:36;;;;;;;8.13;4.30;;;;;;;18.77;53.21;99988.15;123587;1099;107908;-77
2023/06/27 01:22:11;;;;;;;12.97;4.73;;;;;;;18.73;53.86;99987.30;123857;1098;104370;-74
2023/06/27 01:24:43;;;;;;;9.07;4.70;;;;;;;18.68;53.69;99978.45;123347;1099;104298;-75
2023/06/27 01:27:15;;;;;;;6.95;4.12;;;;;;;18.64;53.98;99982.91;123402;1099;104226;-75
2023/06/27 01:29:47;;;;;;;8.10;4.33;;;;;;;18.59;54.03;99981.16;123360;1099;118606;-75
2023/06/27 01:32:24;;;;;;;11.35;4.60;;;;;;;18.55;54.24;99982.08;123735;1099;104367;-76
2023/06/27 01:35:04;;;;;;;7.03;4.03;;;;;;;18.50;54.61;99982.10;123336;1099;104335;-76
2023/06/27 01:37:39;;;;;;;9.53;4.57;;;;;;;18.46;54.65;99985.66;123786;1098;104268;-75
2023/06/27 01:40:15;;;;;;;14.13;4.53;;;;;;;18.42;54.62;99987.45;123827;1099;104265;-75
2023/06/27 01:42:50;;;;;;;8.63;4.20;;;;;;;18.37;55.46;99983.95;123702;1099;104262;-76
2023/06/27 01:45:23;;;;;;;9.73;4.40;;;;;;;18.33;54.87;99988.36;123824;1099;104328;-75
2023/06/27 01:47:55;;;;;;;9.83;4.73;;;;;;;18.27;55.20;99991.05;123872;1099;104246;-76
2023/06/27 01:50:27;;;;;;;8.73;4.53;;;;;;;18.23;55.40;99996.38;123847;1099;109390;-75
2023/06/27 01:52:58;;;;;;;9.57;4.70;;;;;;;18.19;55.83;99998.16;123742;1099;104265;-77
2023/06/27 01:55:32;;;;;;;9.63;4.63;;;;;;;18.14;55.97;99994.65;123703;1099;104348;-76
2023/06/27 01:58:06;;;;;;;10.33;4.17;;;;;;;18.09;55.96;99992.01;123812;1099;104483;-77
2023/06/27 02:00:37;;;;;;;9.05;4.28;;;;;;;18.05;55.97;99989.37;123788;1098;104226;-76
2023/06/27 02:03:08;;;;;;;8.63;4.20;;;;;;;18.00;56.50;99993.78;123645;1099;104361;-76
2023/06/27 02:05:41;;;;;;;13.13;4.80;;;;;;;17.95;56.91;99993.80;123701;1099;104341;-76
2023/06/27 02:08:13;;;;;;;10.07;4.33;;;;;;;17.92;56.82;99994.71;123492;1099;104610;-76
2023/06/27 02:10:44;;;;;;;7.20;4.43;;;;;;;17.88;56.79;99998.25;123861;1099;107430;-76
2023/06/27 02:13:15;;;;;;;9.53;4.30;;;;;;;17.87;57.15;99995.56;123850;1099;104242;-75
2023/06/27 02:15:47;;;;;;;10.23;4.20;;;;;;;17.85;57.22;99992.91;123476;1099;104303;-75
2023/06/27 02:18:18;;;;;;;9.90;4.90;;;;;;;17.84;57.04;99991.16;123487;1099;104280;-74
2023/06/27 02:20:49;;;;;;;9.30;4.77;;;;;;;17.86;57.25;99991.16;123641;1099;104233;-75
2023/06/27 02:23:20;;;;;;;7.10;4.00;;;;;;;17.87;57.12;99993.81;123630;1099;104399;-74
2023/06/27 02:25:52;;;;;;;10.97;4.53;;;;;;;17.89;57.11;99989.41;123400;1099;104354;-75
2023/06/27 02:28:23;;;;;;;11.63;4.30;;;;;;;17.88;57.39;100000.90;123475;1099;104816;-75
2023/06/27 02:30:54;;;;;;;13.07;4.40;;;;;;;17.85;57.32;99997.34;123772;1099;104223;-75
2023/06/27 02:33:25;;;;;;;7.33;4.20;;;;;;;17.80;57.66;99994.70;123729;1099;104616;-75
2023/06/27 02:35:56;;;;;;;12.07;4.43;;;;;;;17.77;58.06;99986.74;123686;1099;104437;-75
2023/06/27 02:38:28;;;;;;;8.03;4.20;;;;;;;17.76;57.94;99987.62;123691;1099;104364;-76
2023/06/27 02:40:59;;;;;;;8.73;4.63;;;;;;;17.78;57.98;99985.87;123478;1099;104271;-77
2023/06/27 02:43:30;;;;;;;8.37;4.30;;;;;;;17.78;58.24;99986.74;123402;1099;104778;-77
2023/06/27 02:46:02;;;;;;;10.10;4.43;;;;;;;17.77;58.36;99990.27;123651;1098;104268;-76
2023/06/27 02:48:33;;;;;;;8.67;4.70;;;;;;;17.78;58.58;99985.87;123725;1099;104360;-75
2023/06/27 02:51:05;;;;;;;9.23;4.57;;;;;;;17.79;58.53;99987.61;123478;1099;104344;-76
2023/06/27 02:53:36;;;;;;;8.47;4.67;;;;;;;17.81;58.59;99991.17;123529;1099;104317;-75
2023/06/27 02:56:08;;;;;;;9.63;4.30;;;;;;;17.83;58.60;99989.39;123509;1102;104354;-75
2023/06/27 02:58:40;;;;;;;9.07;4.23;;;;;;;17.90;58.69;99988.53;123357;1099;104311;-75
2023/06/27 03:01:11;;;;;;;11.13;4.63;;;;;;;17.96;58.55;99983.17;123642;1099;104405;-75
2023/06/27 03:03:46;;;;;;;11.05;4.75;;;;;;;18.01;58.61;99977.86;123709;1099;104326;-75
2023/06/27 03:06:19;;;;;;;12.77;4.60;;;;;;;18.07;58.64;99982.27;123329;1099;104393;-75
2023/06/27 03:08:50;;;;;;;10.08;4.37;;;;;;;18.08;58.58;99984.92;123754;1099;104264;-76
2023/06/27 03:11:22;;;;;;;9.37;4.20;;;;;;;18.10;58.74;99992.88;123447;1099;104348;-75
2023/06/27 03:13:53;;;;;;;8.30;4.30;;;;;;;18.13;58.72;99984.91;123605;1099;104329;-77
2023/06/27 03:16:25;;;;;;;8.80;4.30;;;;;;;18.14;58.77;99989.34;123721;1099;104335;-77
2023/06/27 03:18:56;;;;;;;10.83;4.67;;;;;;;18.15;58.68;99977.81;124076;1099;104192;-76
2023/06/27 03:21:28;;;;;;;8.53;4.40;;;;;;;18.17;58.90;99984.02;123588;1099;104293;-75
2023/06/27 03:23:59;;;;;;;12.07;4.70;;;;;;;18.17;58.75;99981.37;123879;1099;104351;-75
2023/06/27 03:26:30;;;;;;;8.10;4.15;;;;;;;18.19;59.17;99979.58;123676;1099;104214;-76
2023/06/27 03:29:03;;;;;;;11.57;4.30;;;;;;;18.21;59.16;99976.91;123581;1099;104304;-75
2023/06/27 03:31:35;;;;;;;9.15;4.35;;;;;;;18.22;59.30;99970.73;123422;1099;104325;-76
2023/06/27 03:34:06;;;;;;;9.07;4.57;;;;;;;18.23;59.34;99977.78;123745;1099;104281;-76
2023/06/27 03:36:38;;;;;;;10.23;4.53;;;;;;;18.24;59.68;99968.94;123672;1099;104367;-75
2023/06/27 03:39:10;;;;;;;8.87;4.30;;;;;;;18.24;59.79;99971.59;123632;1099;104829;-76
2023/06/27 03:41:55;;;;;;;8.40;4.23;;;;;;;18.25;59.49;99981.34;123593;1099;104343;-75
2023/06/27 03:44:28;;;;;;;10.20;4.60;;;;;;;18.27;59.64;99971.58;123631;1099;104297;-77
2023/06/27 03:47:08;;;;;;;10.07;4.33;;;;;;;18.30;59.76;99985.72;124010;1099;104239;-77
2023/06/27 03:49:39;;;;;;;13.77;4.50;;;;;;;18.33;59.96;99980.39;123481;1099;104341;-77
2023/06/27 03:52:11;;;;;;;7.47;4.13;;;;;;;18.39;60.25;99978.63;124141;1099;104357;-79
2023/06/27 03:54:42;;;;;;;9.10;4.57;;;;;;;18.43;60.13;99973.29;123910;1099;104239;-79
2023/06/27 03:57:14;;;;;;;14.90;4.63;;;;;;;18.47;60.19;99967.05;124050;1099;104310;-80
2023/06/27 03:59:45;;;;;;;9.37;5.00;;;;;;;18.54;60.16;99973.20;123941;1099;104241;-80
2023/06/27 04:02:16;;;;;;;12.73;5.00;;;;;;;18.59;60.24;99970.52;123984;1099;104673;-78
2023/06/27 04:04:48;;;;;;;9.60;4.43;;;;;;;18.64;59.94;99974.94;123910;1099;104514;-79
2023/06/27 04:07:20;;;;;;;9.80;4.30;;;;;;;18.68;60.17;99966.06;124174;1099;104271;-78
2023/06/27 04:09:51;;;;;;;10.53;4.70;;;;;;;18.75;59.97;99977.53;123963;1099;104392;-76
2023/06/27 04:12:29;;;;;;;9.83;4.87;;;;;;;18.80;59.90;99973.05;124089;1099;102699;-77
2023/06/27 04:15:00;;;;;;;13.43;4.77;;;;;;;18.85;59.44;99968.65;124920;1098;104721;-78
2023/06/27 04:17:43;;;;;;;15.37;5.07;;;;;;;18.93;59.88;99970.35;124561;1099;104156;-79
2023/06/27 04:20:16;;;;;;;7.87;4.27;;;;;;;19.00;59.76;99967.64;124348;1099;104297;-79
2023/06/27 04:22:47;;;;;;;10.70;4.40;;;;;;;19.06;60.24;99966.73;124390;1099;104619;-78
2023/06/27 04:25:18;;;;;;;11.10;4.60;;;;;;;19.15;60.22;99971.97;124440;1099;104338;-79
2023/06/27 04:27:50;;;;;;;10.40;4.50;;;;;;;19.20;59.93;99970.15;124289;1099;104331;-77
2023/06/27 04:30:21;;;;;;;8.73;4.10;;;;;;;19.27;59.46;99970.10;124851;1099;104203;-80
2023/06/27 04:32:53;;;;;;;11.50;4.60;;;;;;;19.33;59.72;99960.28;125135;1099;104238;-78
2023/06/27 04:35:24;;;;;;;9.90;4.33;;;;;;;19.43;59.18;99968.19;124798;1099;104238;-77
2023/06/27 04:37:56;;;;;;;10.27;4.47;;;;;;;19.50;59.02;99967.23;124639;1099;104243;-79
2023/06/27 04:40:28;;;;;;;9.63;4.30;;;;;;;19.53;59.50;99961.89;124877;1099;104235;-79
2023/06/27 04:43:00;;;;;;;10.90;4.40;;;;;;;19.58;59.68;99963.59;124602;1099;102188;-81
2023/06/27 04:45:31;;;;;;;7.87;4.20;;;;;;;19.65;58.96;99968.85;124168;1099;104297;-75
2023/06/27 04:48:05;;;;;;;8.37;4.57;;;;;;;19.73;59.63;99957.24;125148;1099;104194;-77
2023/06/27 04:50:35;;;;;;;;;;;;;;;19.78;59.82;99961.68;124768;1099;104270;-80
2023/06/27 04:53:06;;;;;;;11.60;4.40;;;;;;;19.85;59.51;99958.03;125114;1099;104162;-79
2023/06/27 04:55:38;;;;;;;10.93;4.40;;;;;;;19.91;59.50;99953.55;124558;1099;104501;-79
2023/06/27 04:58:09;;;;;;;6.73;4.00;;;;;;;19.97;59.29;99951.70;124951;1098;104188;-75
2023/06/27 05:00:43;;;;;;;12.53;4.67;;;;;;;20.03;59.12;99965.81;124811;1099;104165;-77
2023/06/27 05:03:14;;;;;;;9.93;4.70;;;;;;;20.11;59.08;99965.73;125603;1098;102039;-76
2023/06/27 05:05:46;;;;;;;11.73;4.67;;;;;;;20.19;59.00;99968.30;124670;1099;104227;-76
2023/06/27 05:08:17;;;;;;;8.47;4.47;;;;;;;20.30;58.51;99961.05;124726;1099;104203;-78
2023/06/27 05:10:48;;;;;;;10.70;4.87;;;;;;;20.41;59.27;99969.81;124805;1099;104373;-75
2023/06/27 05:13:20;;;;;;;11.53;4.47;;;;;;;20.51;58.95;99965.23;124400;1099;104261;-82
2023/06/27 05:15:51;;;;;;;12.47;4.53;;;;;;;20.58;58.80;99968.68;125003;1099;104211;-80
2023/06/27 05:18:27;;;;;;;11.83;4.90;;;;;;;20.65;59.09;99971.27;124963;1099;101982;-77
2023/06/27 05:20:59;;;;;;;10.17;4.37;;;;;;;20.75;58.83;99968.48;124500;1098;104239;-79
2023/06/27 05:23:30;;;;;;;8.57;4.30;;;;;;;20.83;58.11;99971.90;124410;1099;104630;-77
2023/06/27 05:26:05;;;;;;;11.00;4.67;;;;;;;20.90;58.30;99962.92;125024;1099;104300;-77
2023/06/27 05:28:39;;;;;;;15.13;4.83;;;;;;;21.01;58.37;99970.75;124809;1099;104332;-79
2023/06/27 05:31:17;;;;;;;12.67;4.70;;;;;;;21.11;58.71;99974.15;125077;1099;104233;-78
2023/06/27 05:33:48;;;;;;;10.30;5.03;;;;;;;21.18;58.71;99973.16;124972;1099;102255;-78
2023/06/27 05:36:20;;;;;;;14.70;4.97;;;;;;;21.28;58.47;99981.88;124462;1099;104204;-80
2023/06/27 05:38:52;;;;;;;14.17;4.97;;;;;;;21.35;57.89;99980.88;125018;1099;104224;-76
2023/06/27 05:41:24;;;;;;;10.53;4.80;;;;;;;21.43;58.63;99972.75;125315;1098;104178;-78
2023/06/27 05:44:23;;;;;;;10.97;4.33;;;;;;;21.51;57.88;99977.06;125181;1099;104192;-79
2023/06/27 05:46:56;;;;;;;14.03;4.97;;;;;;;21.61;58.02;99976.89;124752;1099;102380;-79
2023/06/27 05:49:29;;;;;;;14.05;4.70;;;;;;;21.69;58.50;99974.95;125088;1099;102264;-79
2023/06/27 05:52:00;;;;;;;14.60;5.20;;;;;;;21.80;57.44;99969.42;124993;1099;104239;-78
2023/06/27 05:54:32;;;;;;;16.23;4.93;;;;;;;21.89;57.62;99962.14;125116;1099;104188;-77
2023/06/27 05:57:04;;;;;;;14.07;4.83;;;;;;;22.00;57.52;99969.03;125482;1099;103014;-79
2023/06/27 05:59:44;;;;;;;12.53;4.97;;;;;;;22.10;57.86;99961.74;124908;1099;104354;-80
2023/06/27 06:02:15;;;;;;;10.50;4.50;;;;;;;22.21;58.06;99967.73;126680;1098;102880;-77
2023/06/27 06:04:47;;;;;;;14.07;4.90;;;;;;;22.31;58.06;99966.64;126923;1098;102366;-77
2023/06/27 06:07:23;;;;;;;12.47;4.77;;;;;;;22.40;57.93;99960.23;125040;1099;104187;-77
2023/06/27 06:09:55;;;;;;;11.43;5.00;;;;;;;22.49;57.39;99957.37;125088;1099;104166;-77
2023/06/27 06:12:29;;;;;;;13.40;4.63;;;;;;;22.60;57.20;99957.13;125237;1098;104050;-78
2023/06/27 06:15:02;;;;;;;11.10;4.57;;;;;;;22.69;57.40;99953.34;124942;1099;104166;-77
2023/06/27 06:17:40;;;;;;;13.03;4.90;;;;;;;22.76;57.01;99955.84;124678;1099;104178;-80
2023/06/27 06:20:13;;;;;;;15.17;4.60;;;;;;;22.84;56.53;99950.31;125221;1098;105855;-78
2023/06/27 06:22:56;;;;;;;;;;;;;;;;;;;;;
2023/06/27 06:25:33;;;;;;;10.87;4.23;;;;;;;23.07;57.16;99959.61;125293;1099;104355;-80
2023/06/27 06:28:18;;;;;;;13.30;4.77;;;;;;;23.20;56.90;99962.88;125659;1099;104301;-82
2023/06/27 06:30:55;;;;;;;12.30;4.67;;;;;;;23.33;56.49;99959.00;126195;1099;102967;-79
2023/06/27 06:33:48;;;;;;;8.90;4.20;;;;;;;23.44;56.15;99950.69;126045;1099;102117;-80
2023/06/27 06:36:38;;;;;;;11.55;4.50;;;;;;;23.56;55.92;99949.47;125086;1099;118747;-80
2023/06/27 06:39:10;;;;;;;14.60;4.70;;;;;;;23.68;55.69;99947.36;125161;1099;104457;-80
2023/06/27 06:41:42;;;;;;;16.90;5.00;;;;;;;23.83;55.91;99946.04;124822;1099;104153;-80
2023/06/27 06:44:16;;;;;;;12.45;4.08;;;;;;;23.98;55.42;99955.50;124399;1099;104242;-76
2023/06/27 06:46:51;;;;;;;10.10;4.90;;;;;;;24.10;55.11;99943.53;124770;1099;104277;-77
2023/06/27 06:49:26;;;;;;;10.57;4.40;;;;;;;24.25;54.31;99942.22;124893;1099;102720;-79
2023/06/27 06:52:09;;;;;;;11.00;4.60;;;;;;;24.39;54.24;99945.35;124616;1099;104402;-79
2023/06/27 06:54:58;;;;;;;;;;;;;;;24.53;52.91;99941.38;125483;1098;102513;-80
2023/06/27 06:58:01;;;;;;;8.75;3.85;;;;;;;24.70;52.74;99939.08;125925;1099;104265;-77
2023/06/27 07:00:38;;;;;;;6.40;3.80;;;;;;;24.86;52.50;99942.14;125203;1099;104211;-78
2023/06/27 07:03:15;;;;;;;7.87;4.03;;;;;;;25.05;51.94;99938.86;124226;1102;104325;-77
2023/06/27 07:06:01;;;;;;;6.17;3.50;;;;;;;25.24;51.00;99937.34;124740;1100;104175;-82
2023/06/27 07:08:46;;;;;;;9.97;3.80;;;;;;;25.44;50.60;99936.66;126107;1099;102199;-81
2023/06/27 07:11:34;;;;;;;6.47;3.50;;;;;;;25.61;49.34;99929.83;124634;1099;104265;-76
2023/06/27 07:14:12;;;;;;;7.37;3.80;;;;;;;25.81;48.83;99939.86;124831;1099;104121;-76
2023/06/27 07:16:44;;;;;;;7.00;3.50;;;;;;;26.05;48.08;99934.55;124968;1099;104223;-79
2023/06/27 07:22:27;;;;;;;9.60;3.97;;;;;;;26.46;46.97;99927.59;124813;1099;104175;-80
2023/06/27 07:25:04;;;;;;;7.63;3.90;;;;;;;26.65;46.14;99929.56;126007;1098;104238;-80
2023/06/27 07:27:50;;;;;;;5.83;3.20;;;;;;;26.83;44.56;99934.23;124521;1102;103690;-81
2023/06/27 07:30:39;;;;;;;6.10;3.50;;;;;;;27.07;42.88;99928.77;125776;1099;104287;-81
2023/06/27 07:33:16;;;;;;;5.53;3.47;;;;;;;27.35;42.26;99931.20;125416;1099;104524;-79
2023/06/27 07:35:52;;;;;;;7.03;3.67;;;;;;;27.65;42.52;99935.33;124694;1099;104185;-79
2023/06/27 07:38:26;;;;;;;7.15;3.67;;;;;;;27.85;42.84;99927.22;124774;1099;104315;-77
2023/06/27 07:41:01;;;;;;;7.47;3.90;;;;;;;28.03;41.61;99917.44;124973;1099;104236;-77
2023/06/27 07:43:35;;;;;;;5.60;3.43;;;;;;;28.30;40.57;99914.42;124766;1099;104335;-78
2023/06/27 07:46:16;;;;;;;8.20;3.75;;;;;;;28.52;40.20;99922.37;124784;1099;104216;-80
2023/06/27 07:49:09;;;;;;;6.60;3.70;;;;;;;28.66;39.47;99919.04;124937;1099;104322;-78
2023/06/27 07:51:45;;;;;;;7.20;3.40;;;;;;;28.75;39.26;99915.89;124701;1099;104352;-82
2023/06/27 07:54:21;;;;;;;4.47;3.53;;;;;;;28.91;38.73;99913.30;125074;1099;104417;-79
2023/06/27 07:57:08;;;;;;;6.40;3.53;;;;;;;29.10;38.06;99913.23;125095;1099;104271;-75
2023/06/27 07:59:55;;;;;;;9.20;3.67;;;;;;;29.21;37.72;99908.19;124471;1099;104351;-77
2023/06/27 08:02:37;;;;;;;5.90;3.77;;;;;;;29.42;37.19;99917.98;125727;1099;104078;-82
2023/06/27 08:05:27;;;;;;;5.80;3.90;;;;;;;29.53;36.32;99912.88;124964;1099;103211;-79
2023/06/27 08:08:00;;;;;;;11.17;3.93;;;;;;;29.73;36.49;99909.13;124767;1099;104166;-77
2023/06/27 08:10:32;;;;;;;7.92;3.83;;;;;;;29.88;34.97;99915.58;124473;1099;104210;-74
2023/06/27 08:13:04;;;;;;;6.93;3.60;;;;;;;30.00;35.19;99911.35;124464;1098;104374;-75
2023/06/27 08:15:35;;;;;;;7.00;3.50;;;;;;;30.05;35.30;99910.13;124527;1099;104271;-76
2023/06/27 08:18:12;;;;;;;9.80;4.27;;;;;;;30.15;33.74;99913.19;124890;1099;104156;-80
2023/06/27 08:20:50;;;;;;;7.57;3.93;;;;;;;30.08;34.45;99912.66;124444;1099;104277;-80
2023/06/27 08:23:22;;;;;;;6.27;3.60;;;;;;;30.19;34.11;99909.37;125175;1098;102042;-80
2023/06/27 08:26:01;;;;;;;7.37;3.77;;;;;;;30.29;33.85;99901.60;125004;1099;103421;-79
2023/06/27 08:28:40;;;;;;;8.20;4.00;;;;;;;30.35;33.15;99900.40;125448;1099;104191;-82
2023/06/27 08:31:14;;;;;;;8.40;3.70;;;;;;;30.56;33.45;99904.63;125906;1099;104210;-82
2023/06/27 08:33:51;;;;;;;5.23;3.67;;;;;;;30.54;32.38;99898.45;126039;1099;102541;-82
2023/06/27 08:36:51;;;;;;;8.07;3.80;;;;;;;30.54;32.23;99897.55;126066;1099;104163;-81
2023/06/27 08:39:36;;;;;;;6.67;3.60;;;;;;;30.53;32.33;99906.66;124386;1099;106751;-79
2023/06/27 08:42:14;;;;;;;6.10;3.50;;;;;;;30.66;31.84;99896.84;124954;1099;104261;-75
2023/06/27 08:44:48;;;;;;;7.27;3.60;;;;;;;30.69;32.41;99896.67;124859;1099;104248;-78
2023/06/27 08:47:27;;;;;;;5.60;3.47;;;;;;;30.81;32.37;99897.81;124726;1098;104259;-77
2023/06/27 08:50:12;;;;;;;5.03;3.30;;;;;;;30.81;32.01;99895.97;124895;1099;118216;-78
2023/06/27 08:52:51;;;;;;;6.80;3.80;;;;;;;30.92;31.87;99900.75;124296;1099;104206;-78
2023/06/27 08:55:34;;;;;;;5.90;3.53;;;;;;;30.83;31.53;99896.73;124617;1098;104175;-73
2023/06/27 08:58:08;;;;;;;;;;;;;;;30.61;31.24;99890.84;125022;1098;104222;-78
2023/06/27 09:00:40;;;;;;;8.13;3.57;;;;;;;30.61;31.60;99894.41;124960;1099;102454;-78
2023/06/27 09:03:12;;;;;;;4.80;3.50;;;;;;;30.70;32.00;99890.30;125121;1099;104295;-82
2023/06/27 09:05:47;;;;;;;5.27;3.30;;;;;;;30.87;32.13;99896.56;124631;1099;104287;-80
2023/06/27 09:08:29;;;;;;;6.90;3.70;;;;;;;30.98;31.80;99888.73;125161;1099;102987;-82
2023/06/27 09:14:16;;;;;;;5.23;3.50;;;;;;;31.13;31.63;99887.80;124935;1099;102954;-79
2023/06/27 09:17:16;;;;;;;7.97;3.85;;;;;;;31.19;31.42;99883.86;125330;1099;104679;-82
2023/06/27 09:19:51;;;;;;;5.53;3.60;;;;;;;31.39;31.39;99879.08;124620;1099;104368;-83
2023/06/27 09:22:31;;;;;;;7.30;3.77;;;;;;;31.52;31.35;99880.95;125943;1099;104653;-81
2023/06/27 09:26:06;;;;;;;5.70;3.63;;;;;;;31.50;30.92;99890.99;125102;1099;104268;-84
2023/06/27 09:28:44;;;;;;;;;;;;;;;31.54;31.23;99880.89;124939;1099;104179;-80
2023/06/27 09:31:23;;;;;;;7.47;3.60;;;;;;;31.68;31.00;99880.00;124805;1099;102412;-77
2023/06/27 09:34:05;;;;;;;8.25;4.20;;;;;;;31.73;30.62;99872.48;124922;1099;104262;-77
2023/06/27 09:36:39;;;;;;;5.65;3.50;;;;;;;31.82;30.47;99887.28;124880;1099;104178;-77
2023/06/27 09:39:15;;;;;;;5.67;3.93;;;;;;;31.69;29.74;99887.19;124336;1099;104238;-75
2023/06/27 09:41:51;;;;;;;5.40;3.47;;;;;;;31.63;29.34;99890.27;124779;1099;104235;-76
2023/06/27 09:44:26;;;;;;;9.03;3.60;;;;;;;31.64;29.58;99881.18;124844;1098;104278;-78
2023/06/27 09:46:56;;;;;;;;;;;;;;;31.69;29.60;99877.20;125487;1098;104229;-80
2023/06/27 09:49:32;;;;;;;5.53;3.80;;;;;;;31.63;29.85;99883.00;124547;1100;101991;-82
2023/06/27 09:52:10;;;;;;;8.40;3.77;;;;;;;31.68;29.53;99872.77;124499;1099;104201;-81
2023/06/27 09:54:47;;;;;;;8.30;3.73;;;;;;;31.62;29.54;99872.25;124467;1099;102537;-80
2023/06/27 09:57:23;;;;;;;6.53;3.90;;;;;;;31.59;29.00;99876.05;124867;1099;102601;-78
2023/06/27 10:00:11;;;;;;;5.37;3.67;;;;;;;31.42;28.78;99879.75;124966;1099;102684;-80
2023/06/27 10:02:48;;;;;;;5.77;3.77;;;;;;;31.10;28.73;99868.15;126790;1096;102166;-82
2023/06/27 10:05:32;;;;;;;6.93;4.10;;;;;;;30.79;29.06;99881.65;126485;1099;101935;-81
2023/06/27 10:08:28;;;;;;;6.30;3.60;;;;;;;30.65;29.08;99873.44;126945;1099;102260;-80
2023/06/27 10:11:09;;;;;;;5.30;4.00;;;;;;;30.54;29.06;99875.89;126055;1099;102631;-84
2023/06/27 10:13:40;;;;;;;7.43;3.90;;;;;;;30.63;29.23;99869.95;126043;1099;102430;-82
2023/06/27 10:16:17;;;;;;;6.43;3.90;;;;;;;30.70;29.28;99871.35;126054;1099;103522;-84
2023/06/27 10:21:48;;;;;;;8.43;4.60;;;;;;;30.56;29.41;99868.55;125771;1100;103107;-85
2023/06/27 10:24:44;;;;;;;8.33;4.70;;;;;;;30.50;29.30;99874.34;124791;1103;104178;-82
2023/06/27 10:27:26;;;;;;;7.47;3.90;;;;;;;30.56;29.76;99873.96;125209;1099;104214;-79
2023/06/27 10:30:25;;;;;;;5.70;4.07;;;;;;;30.60;29.54;99876.41;125131;1099;104339;-80
2023/06/27 10:33:16;;;;;;;6.17;4.10;;;;;;;30.80;29.14;99859.00;124901;1099;104271;-82
2023/06/27 10:36:03;;;;;;;6.23;4.27;;;;;;;31.01;28.99;99864.17;125403;1099;104137;-80
2023/06/27 10:38:37;;;;;;;6.10;4.53;;;;;;;31.07;29.04;99854.78;124338;1099;104249;-81
2023/06/27 10:41:33;;;;;;;7.50;4.23;;;;;;;31.19;29.07;99857.62;124784;1102;104175;-81
2023/06/27 10:44:12;;;;;;;8.15;4.60;;;;;;;31.28;28.83;99861.63;124778;1102;104245;-82
2023/06/27 10:46:47;;;;;;;5.87;4.40;;;;;;;31.17;27.67;99859.56;125056;1099;101980;-80
2023/06/27 10:49:37;;;;;;;7.30;4.40;;;;;;;31.04;27.78;99858.56;125110;1099;104192;-79
2023/06/27 10:52:34;;;;;;;6.83;4.20;;;;;;;30.85;27.76;99855.16;125267;1099;104255;-79
2023/06/27 10:55:23;;;;;;;6.37;4.10;;;;;;;30.87;27.72;99856.83;124761;1099;104271;-77
2023/06/27 10:58:03;;;;;;;9.53;4.13;;;;;;;30.89;27.80;99846.77;126848;1098;103465;-80
2023/06/27 11:00:46;;;;;;;8.93;4.37;;;;;;;30.93;27.73;99850.16;126773;1099;102900;-79
2023/06/27 11:03:22;;;;;;;6.72;3.87;;;;;;;30.83;27.86;99839.00;126764;1098;102346;-83
2023/06/27 11:06:00;;;;;;;6.57;4.50;;;;;;;30.61;27.68;99844.81;126314;1099;103546;-82
2023/06/27 11:08:37;;;;;;;8.70;4.30;;;;;;;30.39;27.98;99828.95;126812;1099;102799;-78
2023/06/27 11:11:13;;;;;;;7.73;4.50;;;;;;;30.29;28.04;99826.73;126885;1098;102519;-78
2023/06/27 11:13:55;;;;;;;7.67;4.40;;;;;;;30.17;28.28;99830.12;126826;1099;102176;-79
2023/06/27 11:16:36;;;;;;;6.33;4.40;;;;;;;30.30;28.31;99828.45;126826;1098;101808;-79
2023/06/27 11:19:11;;;;;;;8.17;4.60;;;;;;;30.32;28.19;99832.92;125893;1099;102615;-78
2023/06/27 11:21:46;;;;;;;9.03;4.77;;;;;;;30.26;28.19;99826.91;124825;1099;104238;-78
2023/06/27 11:24:19;;;;;;;6.27;4.53;;;;;;;30.26;28.36;99831.42;124977;1099;104236;-81
2023/06/27 11:26:56;;;;;;;9.55;4.60;;;;;;;30.27;28.37;99825.06;124428;1099;104156;-79
2023/06/27 11:29:28;;;;;;;7.73;4.63;;;;;;;30.13;28.28;99822.27;124794;1099;104511;-76
2023/06/27 11:32:02;;;;;;;9.63;4.83;;;;;;;30.01;28.50;99824.72;124322;1098;104192;-79
2023/06/27 11:34:41;;;;;;;7.47;4.67;;;;;;;29.86;28.76;99829.13;124902;1099;104345;-77
2023/06/27 11:37:20;;;;;;;6.07;4.50;;;;;;;29.72;28.87;99818.18;124588;1099;104171;-74
2023/06/27 11:40:06;;;;;;;10.47;4.83;;;;;;;29.67;28.93;99815.73;124898;1099;104278;-76
2023/06/27 11:42:38;;;;;;;7.73;4.67;;;;;;;29.80;28.88;99807.84;124798;1099;104201;-77
2023/06/27 11:45:15;;;;;;;12.50;5.13;;;;;;;29.94;28.86;99807.08;124948;1099;103600;-75
2023/06/27 11:47:48;;;;;;;8.17;4.73;;;;;;;30.05;29.13;99796.52;125041;1098;104350;-82
2023/06/27 11:50:20;;;;;;;8.97;4.80;;;;;;;30.23;28.96;99801.83;124875;1099;104245;-80
2023/06/27 11:52:59;;;;;;;9.70;4.50;;;;;;;30.41;29.20;99794.53;124510;1099;104267;-79
2023/06/27 11:55:31;;;;;;;6.70;4.50;;;;;;;30.64;29.18;99790.48;125454;1099;102000;-80
2023/06/27 11:58:05;;;;;;;8.93;4.40;;;;;;;30.86;29.10;99797.34;124833;1098;104192;-76
2023/06/27 12:00:40;;;;;;;13.00;4.60;;;;;;;30.99;29.07;99782.10;124826;1098;104241;-75
2023/06/27 12:03:25;;;;;;;9.13;4.33;;;;;;;31.16;28.69;99790.06;125183;1099;104277;-79
2023/06/27 12:06:00;;;;;;;7.80;4.43;;;;;;;31.33;28.72;99782.74;124625;1100;104281;-75